Time;durP1;ratioP1;P1;durP2;ratioP2;P2;SDS_P1;SDS_P2;PMS_P1;PMS_P2;Temp;Humidity;BMP_temperature;BMP_pressure;BME280_temperature;BME280_humidity;BME280_pressure;Samples;Min_cycle;Max_cycle;Signal;HPM_P1;HPM_P2
2022/12/09 00:00:48;;;;;;;62.35;46.67;;;;;;;-0.43;100.00;100501.34;5107064;28;20485;-67
2022/12/09 00:03:14;;;;;;;63.80;48.55;;;;;;;-0.40;100.00;100504.06;5103811;28;20168;-67
2022/12/09 00:05:40;;;;;;;62.15;46.75;;;;;;;-0.38;100.00;100493.75;5108272;28;20111;-67
2022/12/09 00:08:05;;;;;;;63.05;47.97;;;;;;;-0.37;100.00;100499.00;5104606;28;20145;-67
2022/12/09 00:10:30;;;;;;;59.75;45.42;;;;;;;-0.35;100.00;100496.47;5107273;28;20115;-67
2022/12/09 00:12:56;;;;;;;64.10;48.53;;;;;;;-0.36;100.00;100493.00;5105988;28;20076;-67
2022/12/09 00:15:21;;;;;;;58.70;45.75;;;;;;;-0.32;100.00;100498.31;5105920;28;20089;-68
2022/12/09 00:17:47;;;;;;;59.67;46.63;;;;;;;-0.31;100.00;100498.38;5105882;28;20024;-67
2022/12/09 00:20:12;;;;;;;61.20;47.67;;;;;;;-0.29;100.00;100490.66;5104697;28;20030;-71
2022/12/09 00:22:38;;;;;;;60.90;45.10;;;;;;;-0.27;100.00;100491.63;5107864;28;20020;-67
2022/12/09 00:25:03;;;;;;;63.90;45.88;;;;;;;-0.25;100.00;100493.47;5104476;27;20120;-66
2022/12/09 00:27:29;;;;;;;60.17;45.50;;;;;;;-0.25;100.00;100487.38;5106947;28;20107;-67
2022/12/09 00:29:54;;;;;;;64.07;48.30;;;;;;;-0.25;100.00;100488.28;5105835;28;20445;-67
2022/12/09 00:32:20;;;;;;;61.13;47.03;;;;;;;-0.24;100.00;100492.63;5105464;28;20024;-66
2022/12/09 00:34:47;;;;;;;62.25;47.42;;;;;;;-0.21;100.00;100495.34;5107016;28;20028;-67
2022/12/09 00:37:12;;;;;;;62.15;46.05;;;;;;;-0.20;100.00;100497.13;5104390;28;20028;-74
2022/12/09 00:39:38;;;;;;;59.70;45.92;;;;;;;-0.20;100.00;100493.66;5107582;28;20558;-67
2022/12/09 00:42:03;;;;;;;61.38;45.65;;;;;;;-0.17;100.00;100488.59;5103037;28;20032;-67
2022/12/09 00:44:28;;;;;;;61.20;46.83;;;;;;;-0.14;100.00;100496.50;5104934;28;20514;-67
2022/12/09 00:46:54;;;;;;;61.65;46.83;;;;;;;-0.14;100.00;100500.84;5104430;28;20382;-67
2022/12/09 00:49:19;;;;;;;59.00;45.97;;;;;;;-0.14;100.00;100495.63;5103521;28;20376;-67
2022/12/09 00:51:44;;;;;;;60.50;47.03;;;;;;;-0.12;100.00;100494.84;5106726;28;20474;-68
2022/12/09 00:54:10;;;;;;;63.95;46.45;;;;;;;-0.12;100.00;100500.06;5103789;28;20032;-67
2022/12/09 00:56:40;;;;;;;60.95;46.55;;;;;;;-0.13;100.00;100503.50;5106872;28;20032;-67
2022/12/09 00:59:05;;;;;;;59.95;45.65;;;;;;;-0.12;100.00;100489.66;5103665;28;20028;-67
2022/12/09 01:01:31;;;;;;;60.40;45.90;;;;;;;-0.09;100.00;100496.69;5106395;28;20043;-67
2022/12/09 01:03:56;;;;;;;60.55;45.58;;;;;;;-0.09;100.00;100488.91;5105042;28;20027;-83
2022/12/09 01:06:24;;;;;;;58.95;45.67;;;;;;;-0.07;100.00;100489.88;5104760;28;20443;-81
2022/12/09 01:08:50;;;;;;;68.97;49.30;;;;;;;-0.07;100.00;100485.56;5106010;28;20026;-81
2022/12/09 01:11:26;;;;;;;64.82;47.25;;;;;;;-0.06;100.00;100495.13;5103882;28;20059;-83
2022/12/09 01:13:52;;;;;;;65.72;48.05;;;;;;;-0.07;100.00;100498.56;5104074;28;20015;-83
2022/12/09 01:16:23;;;;;;;62.60;47.13;;;;;;;-0.04;100.00;100493.47;5104527;28;20024;-83
2022/12/09 01:18:50;;;;;;;64.05;47.75;;;;;;;-0.04;100.00;100496.06;5105815;27;20486;-81
2022/12/09 01:21:16;;;;;;;67.13;48.95;;;;;;;-0.03;100.00;100494.34;5103943;28;21052;-82
2022/12/09 01:23:42;;;;;;;69.75;49.60;;;;;;;-0.02;100.00;100498.75;5106942;28;20430;-82
2022/12/09 01:26:07;;;;;;;66.28;48.85;;;;;;;-0.04;100.00;100492.59;5103121;28;20036;-83
2022/12/09 01:28:34;;;;;;;65.93;48.30;;;;;;;-0.01;100.00;100504.00;5105944;28;20144;-82
2022/12/09 01:31:14;;;;;;;73.80;50.60;;;;;;;-0.02;100.00;100501.34;5102872;28;20440;-82
2022/12/09 01:33:41;;;;;;;71.15;50.05;;;;;;;0.01;100.00;100505.78;5098051;28;20107;-82
2022/12/09 01:36:12;;;;;;;69.80;49.13;;;;;;;-0.01;100.00;100504.00;5106232;28;20030;-83
2022/12/09 01:38:38;;;;;;;68.50;50.15;;;;;;;-0.03;100.00;100500.47;5098538;28;20067;-67
2022/12/09 01:41:03;;;;;;;72.43;50.45;;;;;;;-0.03;100.00;100499.56;5105970;28;20482;-67
2022/12/09 01:43:29;;;;;;;74.55;51.03;;;;;;;-0.02;100.00;100498.75;5103804;28;20064;-67
2022/12/09 01:45:55;;;;;;;78.80;52.05;;;;;;;-0.05;100.00;100503.81;5104330;28;20368;-67
2022/12/09 01:48:28;;;;;;;74.55;51.17;;;;;;;-0.02;100.00;100509.13;5103865;28;20474;-67
2022/12/09 01:50:57;;;;;;;73.35;50.63;;;;;;;0.03;100.00;100509.31;5104468;28;20027;-67
2022/12/09 01:53:28;;;;;;;83.25;53.50;;;;;;;0.04;100.00;100500.72;5104632;28;20475;-67
2022/12/09 01:55:56;;;;;;;79.72;51.65;;;;;;;0.03;100.00;100505.03;5104269;28;20081;-67
2022/12/09 01:58:22;;;;;;;79.88;52.85;;;;;;;0.02;100.00;100502.38;5104780;28;20049;-67
2022/12/09 02:00:48;;;;;;;81.20;52.88;;;;;;;-0.02;100.00;100504.81;5103160;28;20031;-67
2022/12/09 02:03:13;;;;;;;83.90;54.35;;;;;;;-0.02;100.00;100507.41;5105749;28;20032;-68
2022/12/09 02:05:39;;;;;;;82.20;53.28;;;;;;;0.01;100.00;100505.78;5102402;28;20024;-67
2022/12/09 02:08:12;;;;;;;83.55;54.70;;;;;;;0.00;100.00;100499.72;5105306;28;20038;-67
2022/12/09 02:10:58;;;;;;;81.07;52.45;;;;;;;0.02;100.00;100502.38;5098175;28;20073;-67
2022/12/09 02:13:57;;;;;;;81.95;52.70;;;;;;;0.03;100.00;100510.22;5101335;28;20352;-67
2022/12/09 02:16:26;;;;;;;85.43;54.90;;;;;;;0.06;100.00;100501.66;5101558;28;20035;-67
2022/12/09 02:19:03;;;;;;;79.40;52.58;;;;;;;0.10;100.00;100500.94;5104307;28;20020;-67
2022/12/09 02:21:36;;;;;;;84.10;54.47;;;;;;;0.13;100.00;100501.06;5104302;28;20023;-67
2022/12/09 02:24:15;;;;;;;88.72;56.50;;;;;;;0.14;100.00;100502.84;5102810;28;20031;-67
2022/12/09 02:26:47;;;;;;;90.25;53.75;;;;;;;0.14;100.00;100501.13;5098420;28;20111;-67
2022/12/09 02:29:12;;;;;;;91.67;56.80;;;;;;;0.15;100.00;100492.53;5098392;28;20475;-68
2022/12/09 02:31:52;;;;;;;90.20;55.20;;;;;;;0.15;100.00;100499.44;5105342;28;20277;-68
2022/12/09 02:34:20;;;;;;;87.55;53.47;;;;;;;0.14;100.00;100503.72;5099702;28;20020;-68
2022/12/09 02:36:56;;;;;;;91.93;54.95;;;;;;;0.11;100.00;100501.00;5105128;28;20031;-67
2022/12/09 02:39:35;;;;;;;97.55;56.45;;;;;;;0.14;100.00;100500.25;5102672;28;20067;-67
2022/12/09 02:42:04;;;;;;;92.03;56.10;;;;;;;0.15;100.00;100496.84;5102647;28;20024;-69
2022/12/09 02:44:30;;;;;;;90.18;55.58;;;;;;;0.19;100.00;100503.94;5104138;28;20099;-67
2022/12/09 02:46:56;;;;;;;103.60;58.15;;;;;;;0.16;100.00;100491.69;5103410;28;20118;-67
2022/12/09 02:49:24;;;;;;;97.25;56.78;;;;;;;0.25;100.00;100496.38;5101502;28;20057;-67
2022/12/09 02:51:50;;;;;;;95.78;57.25;;;;;;;0.29;100.00;100492.19;5104236;28;20433;-68
2022/12/09 02:54:18;;;;;;;99.78;57.00;;;;;;;0.27;100.00;100488.66;5101863;28;20120;-67
2022/12/09 02:56:54;;;;;;;103.35;57.85;;;;;;;0.30;100.00;100491.38;5104751;28;20038;-67
2022/12/09 02:59:19;;;;;;;101.43;58.15;;;;;;;0.28;100.00;100487.84;5101026;28;20115;-67
2022/12/09 03:01:55;;;;;;;97.28;56.22;;;;;;;0.32;100.00;100493.22;5104703;28;20057;-67
2022/12/09 03:04:25;;;;;;;97.32;57.47;;;;;;;0.30;100.00;100493.97;5102639;28;20032;-67
2022/12/09 03:06:52;;;;;;;99.78;58.33;;;;;;;0.31;100.00;100491.44;5103568;28;20100;-67
2022/12/09 03:09:25;;;;;;;104.47;57.38;;;;;;;0.33;100.00;100487.16;5101934;28;20032;-68
2022/12/09 03:11:51;;;;;;;103.90;59.92;;;;;;;0.33;100.00;100484.56;5103459;28;20023;-77
2022/12/09 03:14:28;;;;;;;99.60;57.47;;;;;;;0.37;100.00;100485.59;5081056;28;20036;-67
2022/12/09 03:17:18;;;;;;;103.20;57.40;;;;;;;0.37;100.00;100485.59;5103033;28;20447;-67
2022/12/09 03:19:53;;;;;;;106.82;57.85;;;;;;;0.37;100.00;100484.72;5097993;28;20047;-83
2022/12/09 03:22:22;;;;;;;102.30;58.50;;;;;;;0.33;100.00;100474.16;5103716;28;20053;-82
2022/12/09 03:25:07;;;;;;;105.60;57.80;;;;;;;0.34;100.00;100472.47;5100793;28;20379;-82
2022/12/09 03:27:48;;;;;;;110.15;57.53;;;;;;;0.33;100.00;100468.97;5101836;28;20047;-71
2022/12/09 03:30:15;;;;;;;111.20;59.20;;;;;;;0.32;100.00;100469.81;5097655;28;20025;-78
2022/12/09 03:32:42;;;;;;;126.03;59.13;;;;;;;0.33;100.00;100461.16;5104897;28;20048;-82
2022/12/09 03:35:11;;;;;;;122.22;60.67;;;;;;;0.31;100.00;100464.56;5101191;28;20040;-81
2022/12/09 03:37:39;;;;;;;132.43;60.35;;;;;;;0.31;100.00;100462.81;5104146;28;20103;-83
2022/12/09 03:40:09;;;;;;;127.90;62.28;;;;;;;0.31;100.00;100462.81;5100336;28;20028;-83
2022/12/09 03:42:41;;;;;;;136.27;62.28;;;;;;;0.33;100.00;100455.97;5102642;28;20123;-80
2022/12/09 03:45:10;;;;;;;125.30;61.50;;;;;;;0.37;100.00;100454.38;5101416;28;20016;-73
2022/12/09 03:47:37;;;;;;;120.95;62.72;;;;;;;0.40;100.00;100462.31;5104186;28;20058;-82
2022/12/09 03:50:04;;;;;;;119.63;62.00;;;;;;;0.41;100.00;100461.47;5101943;28;20111;-83
2022/12/09 03:52:41;;;;;;;137.68;63.65;;;;;;;0.41;100.00;100463.19;5103013;28;20039;-82
2022/12/09 03:55:30;;;;;;;132.63;62.03;;;;;;;0.43;100.00;100464.16;5101120;28;20020;-83
2022/12/09 03:57:58;;;;;;;140.15;63.17;;;;;;;0.41;100.00;100465.78;5100721;28;20051;-83
2022/12/09 04:00:24;;;;;;;124.45;61.75;;;;;;;0.43;100.00;100464.16;5103090;28;20020;-81
2022/12/09 04:02:49;;;;;;;119.72;61.15;;;;;;;0.43;100.00;100467.63;5101825;28;20100;-67
2022/12/09 04:05:15;;;;;;;119.65;60.95;;;;;;;0.43;100.00;100459.81;5103902;28;20032;-67
2022/12/09 04:07:41;;;;;;;135.80;62.63;;;;;;;0.40;100.00;100458.81;5100852;28;20028;-67
2022/12/09 04:10:06;;;;;;;113.82;61.03;;;;;;;0.38;100.00;100458.75;5103751;28;20157;-67
2022/12/09 04:12:32;;;;;;;117.88;61.58;;;;;;;0.37;100.00;100461.31;5101564;28;20031;-67
2022/12/09 04:14:57;;;;;;;117.32;60.75;;;;;;;0.38;100.00;100456.16;5102955;28;20085;-67
2022/12/09 04:17:23;;;;;;;120.30;62.78;;;;;;;0.39;100.00;100451.84;5103020;28;20031;-69
2022/12/09 04:19:48;;;;;;;142.77;64.93;;;;;;;0.36;100.00;100452.59;5101288;28;20036;-67
2022/12/09 04:22:13;;;;;;;161.13;65.53;;;;;;;0.35;100.00;100450.84;5104485;28;20051;-69
2022/12/09 04:24:38;;;;;;;144.60;62.35;;;;;;;0.36;100.00;100457.78;5096678;28;20577;-67
2022/12/09 04:27:04;;;;;;;137.60;62.67;;;;;;;0.38;100.00;100455.25;5103228;28;20035;-67
2022/12/09 04:29:29;;;;;;;138.68;60.75;;;;;;;0.41;100.00;100450.16;5101913;28;20032;-67
2022/12/09 04:31:54;;;;;;;156.10;65.45;;;;;;;0.39;100.00;100452.72;5101994;28;20036;-67
2022/12/09 04:34:20;;;;;;;175.63;69.05;;;;;;;0.38;100.00;100450.97;5103251;28;20055;-68
2022/12/09 04:36:47;;;;;;;144.40;65.22;;;;;;;0.40;100.00;100448.41;5102474;28;20056;-68
2022/12/09 04:39:12;;;;;;;131.48;64.35;;;;;;;0.41;100.00;100450.16;5107372;28;20498;-67
2022/12/09 04:41:37;;;;;;;129.02;64.15;;;;;;;0.39;100.00;100452.72;5102912;28;20038;-68
2022/12/09 04:44:03;;;;;;;124.72;63.80;;;;;;;0.43;100.00;100458.94;5106827;28;20117;-68
2022/12/09 04:46:28;;;;;;;123.15;62.47;;;;;;;0.43;100.00;100443.34;5105231;28;20042;-68
2022/12/09 04:48:54;;;;;;;122.53;64.10;;;;;;;0.42;100.00;100446.75;5105455;28;20475;-68
2022/12/09 04:51:19;;;;;;;120.13;62.33;;;;;;;0.42;100.00;100447.63;5106501;28;20512;-68
2022/12/09 04:53:44;;;;;;;123.78;63.22;;;;;;;0.49;100.00;100448.75;5103897;28;20031;-70
2022/12/09 04:56:13;;;;;;;119.32;62.95;;;;;;;0.48;100.00;100444.38;5107385;28;20386;-69
2022/12/09 04:58:38;;;;;;;115.82;59.58;;;;;;;0.48;100.00;100452.19;5103691;28;20045;-69
2022/12/09 05:01:06;;;;;;;111.20;58.92;;;;;;;0.52;100.00;100451.47;5105164;28;20036;-69
2022/12/09 05:03:31;;;;;;;119.18;62.15;;;;;;;0.50;100.00;100450.56;5105114;28;20428;-70
2022/12/09 05:05:56;;;;;;;118.53;63.28;;;;;;;0.50;100.00;100450.56;5105063;28;20157;-72
2022/12/09 05:08:22;;;;;;;118.53;61.22;;;;;;;0.50;100.00;100455.75;5104608;28;20057;-69
2022/12/09 05:10:48;;;;;;;109.10;58.92;;;;;;;0.51;100.00;100449.69;5103992;28;20053;-69
2022/12/09 05:13:14;;;;;;;114.50;61.15;;;;;;;0.48;100.00;100447.88;5106844;28;20034;-79
2022/12/09 05:15:39;;;;;;;115.00;60.10;;;;;;;0.50;100.00;100448.81;5103334;28;20032;-80
2022/12/09 05:18:04;;;;;;;115.57;63.10;;;;;;;0.48;100.00;100453.09;5106216;28;20027;-84
2022/12/09 05:20:30;;;;;;;113.78;60.25;;;;;;;0.51;100.00;100453.22;5103590;28;20048;-83
2022/12/09 05:22:55;;;;;;;113.90;60.22;;;;;;;0.49;100.00;100451.38;5105121;28;20036;-73
2022/12/09 05:25:22;;;;;;;108.32;60.85;;;;;;;0.54;100.00;100447.25;5104434;28;20034;-76
2022/12/09 05:27:48;;;;;;;104.00;59.28;;;;;;;0.57;100.00;100451.66;5102202;28;20117;-79
2022/12/09 05:30:13;;;;;;;102.03;60.05;;;;;;;0.54;100.00;100447.25;5106672;28;20011;-83
2022/12/09 05:32:39;;;;;;;92.40;57.40;;;;;;;0.51;100.00;100450.59;5103051;28;20032;-83
2022/12/09 05:35:05;;;;;;;89.80;57.03;;;;;;;0.51;100.00;100447.09;5105737;28;20038;-83
2022/12/09 05:37:30;;;;;;;89.07;57.75;;;;;;;0.51;100.00;100449.69;5104605;28;20069;-71
2022/12/09 05:39:55;;;;;;;91.18;58.33;;;;;;;0.50;100.00;100450.56;5104250;28;20052;-82
2022/12/09 05:42:20;;;;;;;95.13;59.47;;;;;;;0.47;100.00;100450.44;5105452;28;20050;-78
2022/12/09 05:44:46;;;;;;;88.65;57.30;;;;;;;0.44;100.00;100456.41;5103074;28;20398;-82
2022/12/09 05:47:11;;;;;;;90.28;57.47;;;;;;;0.42;100.00;100447.63;5105872;28;20031;-83
2022/12/09 05:49:37;;;;;;;87.00;55.35;;;;;;;0.43;100.00;100457.22;5102667;28;20028;-68
2022/12/09 05:52:03;;;;;;;88.18;55.88;;;;;;;0.43;100.00;100445.94;5105332;28;20098;-69
2022/12/09 05:54:29;;;;;;;93.40;58.28;;;;;;;0.43;100.00;100444.22;5103830;28;20027;-68
2022/12/09 05:56:56;;;;;;;86.82;55.75;;;;;;;0.43;100.00;100448.53;5103793;28;20070;-68
2022/12/09 05:59:22;;;;;;;90.75;57.22;;;;;;;0.43;100.00;100445.94;5105279;28;20110;-68
2022/12/09 06:01:47;;;;;;;92.28;56.20;;;;;;;0.41;100.00;100444.97;5102694;28;20066;-68
2022/12/09 06:04:13;;;;;;;91.72;57.00;;;;;;;0.42;100.00;100439.81;5105947;28;20118;-69
2022/12/09 06:06:38;;;;;;;87.07;55.90;;;;;;;0.46;100.00;100446.94;5101623;28;20036;-68
2022/12/09 06:09:07;;;;;;;88.28;55.38;;;;;;;0.44;100.00;100439.91;5105160;28;20506;-68
2022/12/09 06:11:32;;;;;;;88.20;55.33;;;;;;;0.44;100.00;100439.91;5103289;28;20031;-71
2022/12/09 06:13:58;;;;;;;85.68;55.47;;;;;;;0.42;100.00;100438.94;5104106;28;20047;-68
2022/12/09 06:16:23;;;;;;;84.88;54.47;;;;;;;0.41;100.00;100443.28;5104549;28;20028;-68
2022/12/09 06:18:48;;;;;;;84.35;55.05;;;;;;;0.40;100.00;100441.50;5101353;28;20203;-68
2022/12/09 06:21:17;;;;;;;87.80;55.17;;;;;;;0.44;100.00;100439.91;5105535;27;20034;-68
2022/12/09 06:23:42;;;;;;;87.32;55.65;;;;;;;0.45;100.00;100441.66;5098085;28;20077;-68
2022/12/09 06:26:26;;;;;;;82.35;53.22;;;;;;;0.49;100.00;100448.75;5105174;28;20031;-68
2022/12/09 06:28:52;;;;;;;87.13;54.60;;;;;;;0.42;100.00;100444.16;5103851;28;20115;-70
2022/12/09 06:31:18;;;;;;;85.40;54.53;;;;;;;0.42;100.00;100441.56;5102609;28;20097;-83
2022/12/09 06:33:43;;;;;;;85.30;55.45;;;;;;;0.37;100.00;100441.38;5105515;28;20074;-83
2022/12/09 06:36:09;;;;;;;83.72;55.15;;;;;;;0.37;100.00;100445.69;5102125;28;20024;-82
2022/12/09 06:38:34;;;;;;;82.53;52.97;;;;;;;0.39;100.00;100437.09;5102866;28;20121;-83
2022/12/09 06:41:04;;;;;;;86.78;56.22;;;;;;;0.45;100.00;100446.88;5103114;28;20027;-83
2022/12/09 06:43:30;;;;;;;87.13;55.55;;;;;;;0.40;100.00;100443.22;5103890;28;20028;-83
2022/12/09 06:45:55;;;;;;;86.03;54.83;;;;;;;0.42;100.00;100441.56;5099301;28;20063;-66
2022/12/09 06:48:20;;;;;;;81.13;52.20;;;;;;;0.42;100.00;100442.44;5095170;28;20031;-68
2022/12/09 06:50:46;;;;;;;85.82;53.55;;;;;;;0.41;100.00;100434.56;5097029;28;20391;-66
2022/12/09 06:53:11;;;;;;;87.82;54.70;;;;;;;0.40;100.00;100443.22;5101284;28;20063;-67
2022/12/09 06:55:36;;;;;;;83.15;53.45;;;;;;;0.38;100.00;100437.97;5097443;28;20028;-68
2022/12/09 06:58:02;;;;;;;85.18;54.88;;;;;;;0.38;100.00;100440.56;5096782;28;20224;-67
2022/12/09 07:00:27;;;;;;;82.97;53.42;;;;;;;0.37;100.00;100438.78;5094986;28;20028;-67
2022/12/09 07:02:53;;;;;;;79.57;52.88;;;;;;;0.38;100.00;100444.84;5076743;28;20025;-67
2022/12/09 07:05:18;;;;;;;82.55;53.22;;;;;;;0.38;100.00;100450.97;5096019;28;20119;-70
2022/12/09 07:07:49;;;;;;;82.57;53.30;;;;;;;0.38;100.00;100450.06;5089749;28;20031;-67
2022/12/09 07:10:14;;;;;;;86.85;54.75;;;;;;;0.41;100.00;100453.69;5092139;28;20021;-66
2022/12/09 07:12:40;;;;;;;84.20;54.55;;;;;;;0.39;100.00;100452.72;5095126;28;20126;-67
2022/12/09 07:15:06;;;;;;;85.30;53.63;;;;;;;0.33;100.00;100447.28;5095344;28;20035;-83
2022/12/09 07:17:31;;;;;;;87.68;54.25;;;;;;;0.30;100.00;100449.75;5093371;28;20043;-80
2022/12/09 07:19:56;;;;;;;86.63;54.35;;;;;;;0.28;100.00;100454.91;5096300;28;20431;-74
2022/12/09 07:22:22;;;;;;;90.40;54.95;;;;;;;0.27;100.00;100460.03;5098710;28;20382;-76
2022/12/09 07:24:47;;;;;;;85.80;54.40;;;;;;;0.19;100.00;100459.75;5099176;28;20024;-77
2022/12/09 07:27:14;;;;;;;81.28;52.63;;;;;;;0.22;100.00;100459.88;5093054;28;20112;-78
2022/12/09 07:29:39;;;;;;;83.03;52.63;;;;;;;0.20;100.00;100465.81;5096721;28;20497;-75
2022/12/09 07:32:07;;;;;;;86.75;54.47;;;;;;;0.20;100.00;100468.44;5096162;28;20032;-77
2022/12/09 07:34:33;;;;;;;84.75;53.10;;;;;;;0.15;100.00;100463.03;5095664;28;20063;-74
2022/12/09 07:36:59;;;;;;;83.65;53.42;;;;;;;0.11;100.00;100471.53;5091078;28;20075;-76
2022/12/09 07:39:24;;;;;;;80.15;52.78;;;;;;;0.05;100.00;100466.97;5094860;28;20078;-76
2022/12/09 07:41:52;;;;;;;81.72;52.08;;;;;;;0.07;100.00;100474.84;5090265;28;20078;-76
2022/12/09 07:44:17;;;;;;;76.60;50.20;;;;;;;0.02;100.00;100477.25;5094459;28;20110;-78
2022/12/09 07:46:43;;;;;;;73.10;49.42;;;;;;;0.01;100.00;100475.47;5091233;28;20115;-75
2022/12/09 07:49:10;;;;;;;73.88;49.42;;;;;;;0.02;100.00;100476.38;5091992;28;20471;-76
2022/12/09 07:51:35;;;;;;;72.78;50.00;;;;;;;0.05;100.00;100481.69;5092886;28;20099;-76
2022/12/09 07:54:00;;;;;;;72.28;49.33;;;;;;;0.03;100.00;100481.63;5092360;28;20119;-73
2022/12/09 07:56:27;;;;;;;73.72;49.90;;;;;;;0.05;100.00;100485.16;5093800;28;20471;-73
2022/12/09 07:58:53;;;;;;;76.32;50.50;;;;;;;0.06;100.00;100478.25;5095199;28;20043;-72
2022/12/09 08:01:25;;;;;;;71.78;49.20;;;;;;;0.10;100.00;100481.06;5096764;28;20379;-76
2022/12/09 08:03:51;;;;;;;;;;;;;;;0.18;100.00;100489.16;5092875;28;20103;-78
2022/12/09 08:06:24;;;;;;;74.82;50.50;;;;;;;0.16;100.00;100483.91;5098051;28;20015;-76
2022/12/09 08:08:49;;;;;;;75.70;50.15;;;;;;;0.10;100.00;100480.16;5095131;28;20024;-79
2022/12/09 08:11:21;;;;;;;71.38;49.63;;;;;;;0.14;100.00;100484.66;5092547;28;20115;-78
2022/12/09 08:13:47;;;;;;;74.38;49.63;;;;;;;0.12;100.00;100483.72;5098198;28;20016;-75
2022/12/09 08:16:14;;;;;;;72.68;48.78;;;;;;;0.08;100.00;100487.91;5096080;28;20028;-74
2022/12/09 08:18:40;;;;;;;72.95;48.63;;;;;;;0.10;100.00;100485.34;5097666;28;20435;-77
2022/12/09 08:21:11;;;;;;;70.43;48.78;;;;;;;0.12;100.00;100483.72;5098347;28;20040;-73
2022/12/09 08:23:37;;;;;;;73.57;49.80;;;;;;;0.15;100.00;100476.03;5096540;28;20020;-76
2022/12/09 08:26:03;;;;;;;72.90;48.95;;;;;;;0.19;100.00;100482.25;5100282;28;20043;-74
2022/12/09 08:28:29;;;;;;;75.68;49.28;;;;;;;0.19;100.00;100483.16;5097472;28;20103;-74
2022/12/09 08:30:55;;;;;;;73.57;49.58;;;;;;;0.24;100.00;100483.31;5099110;28;20058;-74
2022/12/09 08:33:20;;;;;;;73.60;49.03;;;;;;;0.14;100.00;100476.84;5098769;28;20046;-83
2022/12/09 08:35:46;;;;;;;73.35;47.38;;;;;;;0.14;100.00;100482.06;5094968;28;20483;-81
2022/12/09 08:38:11;;;;;;;70.25;47.85;;;;;;;-0.01;100.00;100482.31;5099712;28;20044;-73
2022/12/09 08:40:37;;;;;;;67.35;45.90;;;;;;;-0.13;100.00;100487.91;5099961;28;20487;-76
2022/12/09 08:43:04;;;;;;;70.93;46.80;;;;;;;-0.20;100.00;100485.88;5099695;28;20162;-76
2022/12/09 08:45:35;;;;;;;66.40;46.63;;;;;;;-0.24;100.00;100484.84;5100297;28;20028;-75
2022/12/09 08:48:00;;;;;;;70.82;48.38;;;;;;;-0.26;100.00;100480.41;5101806;28;20356;-76
2022/12/09 08:50:26;;;;;;;73.00;47.85;;;;;;;-0.28;100.00;100476.84;5101758;28;20035;-75
2022/12/09 08:52:51;;;;;;;71.20;48.38;;;;;;;-0.31;100.00;100476.72;5100421;27;20031;-70
2022/12/09 08:55:16;;;;;;;81.28;48.38;;;;;;;-0.36;100.00;100476.53;5098963;28;20115;-76
2022/12/09 08:57:41;;;;;;;78.68;50.60;;;;;;;-0.38;100.00;100480.75;5096617;28;20028;-76
2022/12/09 09:00:07;;;;;;;75.13;49.35;;;;;;;-0.33;100.00;100483.59;5100695;28;20111;-76
2022/12/09 09:02:33;;;;;;;78.05;50.63;;;;;;;-0.24;100.00;100482.25;5101345;28;20058;-76
2022/12/09 09:04:58;;;;;;;83.63;51.22;;;;;;;-0.18;100.00;100484.22;5098920;28;20404;-77
2022/12/09 09:07:23;;;;;;;77.97;50.90;;;;;;;-0.10;100.00;100485.44;5104601;28;20025;-76
2022/12/09 09:09:49;;;;;;;85.03;52.00;;;;;;;-0.02;100.00;100489.22;5106836;28;20034;-75
2022/12/09 09:12:14;;;;;;;85.10;52.50;;;;;;;0.05;100.00;100486.91;5103331;28;20034;-74
2022/12/09 09:14:39;;;;;;;83.70;51.30;;;;;;;0.20;100.00;100487.50;5106623;28;20028;-76
2022/12/09 09:17:05;;;;;;;84.70;51.83;;;;;;;0.34;100.00;100495.88;5103344;28;20508;-76
2022/12/09 09:19:31;;;;;;;79.78;51.65;;;;;;;0.50;100.00;100495.66;5105149;28;20462;-68
2022/12/09 09:21:56;;;;;;;77.35;49.47;;;;;;;0.59;100.00;100500.31;5105080;28;20028;-68
2022/12/09 09:24:23;;;;;;;77.82;49.05;;;;;;;0.62;100.00;100503.03;5102990;28;20035;-67
2022/12/09 09:26:50;;;;;;;70.93;48.45;;;;;;;0.82;100.00;100513.34;5106372;28;20130;-68
2022/12/09 09:29:18;;;;;;;69.60;47.08;;;;;;;0.91;100.00;100511.09;5103201;28;20060;-68
2022/12/09 09:31:47;;;;;;;67.07;46.60;;;;;;;1.11;100.00;100511.84;5099035;28;20020;-67
2022/12/09 09:34:13;;;;;;;67.40;46.67;;;;;;;1.63;100.00;100501.53;5106551;28;20034;-68
2022/12/09 09:36:39;;;;;;;65.05;46.28;;;;;;;2.07;100.00;100503.06;5103668;27;20484;-68
2022/12/09 09:39:04;;;;;;;58.63;41.97;;;;;;;2.39;100.00;100503.22;5105111;28;20516;-68
2022/12/09 09:41:40;;;;;;;57.45;40.65;;;;;;;2.93;100.00;100507.50;5104542;28;20103;-68
2022/12/09 09:44:24;;;;;;;54.13;38.50;;;;;;;3.54;100.00;100506.59;5092426;28;20099;-75
2022/12/09 09:46:51;;;;;;;49.88;37.75;;;;;;;3.73;100.00;100505.38;5099893;28;20034;-74
2022/12/09 09:49:31;;;;;;;46.45;33.92;;;;;;;3.67;100.00;100499.16;5092969;28;20031;-69
2022/12/09 09:52:01;;;;;;;44.83;32.30;;;;;;;3.56;100.00;100499.69;5097620;28;20051;-69
2022/12/09 09:54:27;;;;;;;47.55;33.30;;;;;;;3.67;100.00;100507.00;5095501;28;20034;-70
2022/12/09 09:57:04;;;;;;;46.25;33.95;;;;;;;3.73;100.00;100495.81;5096814;28;20115;-70
2022/12/09 10:00:00;;;;;;;47.90;34.10;;;;;;;3.45;100.00;100502.91;5097886;28;20037;-74
2022/12/09 10:03:01;;;;;;;47.00;34.13;;;;;;;2.91;100.00;100498.75;5092897;28;20077;-69
2022/12/09 10:05:38;;;;;;;45.67;33.60;;;;;;;2.93;100.00;100491.84;5096681;28;20038;-68
2022/12/09 10:08:32;;;;;;;51.33;35.80;;;;;;;3.16;100.00;100495.94;5100900;28;20023;-68
2022/12/09 10:11:12;;;;;;;49.97;34.55;;;;;;;3.41;100.00;100498.44;5086360;28;20475;-68
2022/12/09 10:14:04;;;;;;;49.08;35.08;;;;;;;3.47;100.00;100498.59;5100452;28;20025;-68
2022/12/09 10:16:43;;;;;;;46.97;31.60;;;;;;;2.90;100.00;100503.94;5095954;28;20066;-68
2022/12/09 10:19:18;;;;;;;44.97;32.13;;;;;;;2.46;100.00;100503.41;5099166;28;20016;-68
2022/12/09 10:21:46;;;;;;;45.65;31.98;;;;;;;2.14;100.00;100490.22;5096259;28;20024;-69
2022/12/09 10:24:23;;;;;;;47.38;32.85;;;;;;;1.95;100.00;100487.00;5098871;28;20111;-68
2022/12/09 10:26:57;;;;;;;47.53;33.33;;;;;;;2.02;100.00;100494.19;5095003;28;20028;-67
2022/12/09 10:29:46;;;;;;;47.97;34.13;;;;;;;2.06;100.00;100490.84;5096311;28;20031;-68
2022/12/09 10:32:18;;;;;;;47.17;33.22;;;;;;;2.04;100.00;100492.53;5101053;28;20039;-69
2022/12/09 10:34:46;;;;;;;49.17;34.47;;;;;;;2.08;100.00;100489.19;5092727;28;20053;-67
2022/12/09 10:37:23;;;;;;;48.35;33.53;;;;;;;2.04;100.00;100492.53;5095920;28;20062;-68
2022/12/09 10:39:54;;;;;;;48.72;34.58;;;;;;;2.10;100.00;100486.63;5097878;28;20036;-68
2022/12/09 10:45:06;;;;;;;46.22;31.75;;;;;;;2.09;100.00;100493.56;5096913;28;20047;-66
2022/12/09 10:47:31;;;;;;;42.28;29.90;;;;;;;2.06;100.00;100484.75;5098218;28;20390;-67
2022/12/09 10:49:58;;;;;;;44.72;30.52;;;;;;;2.08;100.00;100481.38;5097186;28;20028;-66
2022/12/09 10:52:30;;;;;;;44.70;31.40;;;;;;;2.12;100.00;100484.06;5094025;28;20039;-67
2022/12/09 10:54:56;;;;;;;41.60;28.90;;;;;;;2.09;100.00;100484.84;5098504;28;20062;-68
2022/12/09 10:57:27;;;;;;;42.88;28.77;;;;;;;1.98;100.00;100481.91;5094317;28;20028;-71
2022/12/09 10:59:55;;;;;;;43.55;28.73;;;;;;;2.15;100.00;100484.19;5098831;28;20028;-72
2022/12/09 11:02:21;;;;;;;41.85;27.52;;;;;;;2.25;100.00;100475.81;5098234;28;20600;-71
2022/12/09 11:04:47;;;;;;;41.65;28.13;;;;;;;2.34;100.00;100478.69;5098617;28;20103;-70
2022/12/09 11:07:14;;;;;;;41.03;26.88;;;;;;;2.49;100.00;100470.50;5098468;28;20027;-70
2022/12/09 11:09:54;;;;;;;40.67;26.80;;;;;;;2.44;100.00;100478.16;5099065;28;20024;-70
2022/12/09 11:12:26;;;;;;;38.67;25.20;;;;;;;2.31;100.00;100485.56;5094828;28;20016;-69
2022/12/09 11:14:57;;;;;;;38.72;25.45;;;;;;;2.19;100.00;100480.84;5097642;28;20592;-78